Time,TemperatureF,DewpointF,PressureIn,WindDirection,WindDirectionDegrees,WindSpeedMPH,WindSpeedGustMPH,Humidity,HourlyPrecipIn,Conditions,Clouds,dailyrainin,SoftwareType,DateUTC
2013-02-03 00:02:00,9.5,5.1,29.94,South,174,0.0,0.0,82,0.00,-SN,,0.00,WeatherDisplay:10.37,2013-02-03 06:02:00,
2013-02-03 00:07:00,9.7,5.3,29.94,South,174,0.0,0.0,82,0.00,-SN,,0.00,WeatherDisplay:10.37,2013-02-03 06:07:00,
2013-02-03 00:12:00,9.7,5.3,29.94,South,175,2.3,2.3,82,0.00,-SN,,0.00,WeatherDisplay:10.37,2013-02-03 06:12:00,
2013-02-03 00:17:00,9.7,5.3,29.93,South,175,0.0,0.0,82,0.00,-SN,,0.00,WeatherDisplay:10.37,2013-02-03 06:17:00,
2013-02-03 00:22:00,9.7,5.3,29.93,South,175,2.3,2.3,82,0.00,-SN,,0.00,WeatherDisplay:10.37,2013-02-03 06:22:00,
2013-02-03 00:27:00,9.9,5.5,29.93,South,175,3.5,3.5,82,0.00,-SN,,0.00,WeatherDisplay:10.37,2013-02-03 06:27:00,
2013-02-03 00:32:00,9.9,5.5,29.94,South,181,2.0,2.0,82,0.00,-SN,,0.00,WeatherDisplay:10.37,2013-02-03 06:32:00,
2013-02-03 00:37:00,10.0,5.6,29.94,WNW,298,1.1,1.1,82,0.00,-SN,,0.00,WeatherDisplay:10.37,2013-02-03 06:37:00,
2013-02-03 00:42:00,10.0,5.6,29.94,NW,306,3.5,3.5,82,0.00,-SN,,0.00,WeatherDisplay:10.37,2013-02-03 06:42:00,
2013-02-03 00:47:00,10.0,5.6,29.94,NW,306,3.5,3.5,82,0.00,-SN,,0.00,WeatherDisplay:10.37,2013-02-03 06:47:00,
2013-02-03 00:52:00,10.0,5.6,29.94,NW,318,4.6,4.6,82,0.00,-SN,,0.00,WeatherDisplay:10.37,2013-02-03 06:52:00,
2013-02-03 00:57:00,10.0,5.6,29.94,NW,323,4.0,4.0,82,0.00,-SN,,0.00,WeatherDisplay:10.37,2013-02-03 06:57:00,
2013-02-03 01:02:00,10.0,5.6,29.94,NW,304,6.9,6.9,82,0.00,-SN,,0.00,WeatherDisplay:10.37,2013-02-03 07:02:00,
2013-02-03 01:07:00,10.0,5.6,29.94,WNW,300,9.2,9.2,82,0.00,-SN,,0.00,WeatherDisplay:10.37,2013-02-03 07:07:00,
2013-02-03 01:12:00,10.0,5.6,29.94,WNW,298,9.2,9.2,82,0.00,-SN,,0.00,WeatherDisplay:10.37,2013-02-03 07:12:00,
2013-02-03 01:17:00,10.0,5.3,29.94,WNW,292,6.9,6.9,81,0.00,-SN,,0.00,WeatherDisplay:10.37,2013-02-03 07:17:00,
2013-02-03 01:22:00,10.0,5.3,29.94,NW,325,5.8,5.8,81,0.00,-SN,,0.00,WeatherDisplay:10.37,2013-02-03 07:22:00,
2013-02-03 01:27:00,9.9,5.2,29.94,WNW,297,10.4,10.4,81,0.00,-SN,,0.00,WeatherDisplay:10.37,2013-02-03 07:27:00,
2013-02-03 01:32:00,9.9,5.0,29.94,West,273,9.2,9.2,80,0.00,-SN,,0.00,WeatherDisplay:10.37,2013-02-03 07:32:00,
2013-02-03 01:37:00,9.9,5.0,29.94,NW,321,11.5,11.5,80,0.00,-SN,,0.00,WeatherDisplay:10.37,2013-02-03 07:37:00,
2013-02-03 01:42:00,9.7,4.5,29.94,NW,306,10.0,10.0,79,0.00,-SN,,0.00,WeatherDisplay:10.37,2013-02-03 07:42:00,
2013-02-03 01:47:00,9.5,4.3,29.95,NNW,327,10.4,10.4,79,0.00,-SN,,0.00,WeatherDisplay:10.37,2013-02-03 07:47:00,
2013-02-03 01:52:00,9.5,4.0,29.95,NW,307,11.5,11.5,78,0.00,-SN,,0.00,WeatherDisplay:10.37,2013-02-03 07:52:00,
2013-02-03 01:57:00,9.5,4.0,29.95,WNW,287,9.2,9.2,78,0.00,-SN,,0.00,WeatherDisplay:10.37,2013-02-03 07:57:00,
2013-02-03 02:02:00,9.3,3.8,29.96,WNW,300,6.9,6.9,78,0.00,OVC,,0.00,WeatherDisplay:10.37,2013-02-03 08:02:00,
2013-02-03 02:07:00,9.3,3.8,29.96,NNW,338,11.5,11.5,78,0.00,OVC,,0.00,WeatherDisplay:10.37,2013-02-03 08:07:00,
2013-02-03 02:12:00,9.3,3.8,29.96,NW,311,6.9,6.9,78,0.00,OVC,,0.00,WeatherDisplay:10.37,2013-02-03 08:12:00,
2013-02-03 02:17:00,9.3,3.8,29.96,WNW,290,10.4,10.4,78,0.00,OVC,,0.00,WeatherDisplay:10.37,2013-02-03 08:17:00,
2013-02-03 02:22:00,9.2,3.4,29.96,NW,317,11.5,11.5,77,0.00,OVC,,0.00,WeatherDisplay:10.37,2013-02-03 08:22:00,
2013-02-03 02:27:00,9.2,3.4,29.96,NW,311,15.0,15.0,77,0.00,OVC,,0.00,WeatherDisplay:10.37,2013-02-03 08:27:00,
2013-02-03 02:32:00,9.2,3.4,29.97,WNW,300,11.5,11.5,77,0.00,OVC,,0.00,WeatherDisplay:10.37,2013-02-03 08:32:00,
2013-02-03 02:37:00,9.2,3.4,29.97,NW,319,13.8,13.8,77,0.00,OVC,,0.00,WeatherDisplay:10.37,2013-02-03 08:37:00,
2013-02-03 02:42:00,9.2,3.4,29.97,NW,322,12.0,12.0,77,0.00,OVC,,0.00,WeatherDisplay:10.37,2013-02-03 08:42:00,
2013-02-03 02:47:00,9.2,3.2,29.97,WNW,286,9.0,9.0,76,0.00,-SN,,0.00,WeatherDisplay:10.37,2013-02-03 08:47:00,
2013-02-03 02:52:00,9.2,3.2,29.97,NNW,336,11.5,11.5,76,0.00,-SN,,0.00,WeatherDisplay:10.37,2013-02-03 08:52:00,
2013-02-03 02:57:00,9.2,3.2,29.97,WNW,290,5.8,5.8,76,0.00,-SN,,0.00,WeatherDisplay:10.37,2013-02-03 08:57:00,
2013-02-03 03:02:00,9.3,3.3,29.97,NW,322,11.5,11.5,76,0.00,-SN,,0.00,WeatherDisplay:10.37,2013-02-03 09:02:00,
2013-02-03 03:07:00,9.3,3.3,29.97,WNW,298,10.4,10.4,76,0.00,-SN,,0.00,WeatherDisplay:10.37,2013-02-03 09:07:00,
2013-02-03 03:12:00,9.3,3.3,29.97,NW,325,5.8,5.8,76,0.00,-SN,,0.00,WeatherDisplay:10.37,2013-02-03 09:12:00,
2013-02-03 03:17:00,9.5,3.5,29.97,WNW,300,12.0,12.0,76,0.00,OVC,,0.00,WeatherDisplay:10.37,2013-02-03 09:17:00,
2013-02-03 03:22:00,9.5,3.2,29.97,NW,317,12.7,12.7,75,0.00,OVC,,0.00,WeatherDisplay:10.37,2013-02-03 09:22:00,
2013-02-03 03:27:00,9.7,3.4,29.97,West,279,10.4,10.4,75,0.00,OVC,,0.00,WeatherDisplay:10.37,2013-02-03 09:27:00,
2013-02-03 03:32:00,9.7,3.4,29.97,NW,312,13.8,13.8,75,0.00,OVC,,0.00,WeatherDisplay:10.37,2013-02-03 09:32:00,
2013-02-03 03:37:00,9.7,3.1,29.97,WNW,297,12.7,12.7,74,0.00,OVC,,0.00,WeatherDisplay:10.37,2013-02-03 09:37:00,
2013-02-03 03:42:00,9.9,3.3,29.97,North,360,11.5,11.5,74,0.00,OVC,,0.00,WeatherDisplay:10.37,2013-02-03 09:42:00,
2013-02-03 03:47:00,9.7,3.1,29.97,NNW,337,11.5,11.5,74,0.00,OVC,,0.00,WeatherDisplay:10.37,2013-02-03 09:47:00,
2013-02-03 03:52:00,9.7,3.1,29.97,NW,314,10.4,10.4,74,0.00,OVC,,0.00,WeatherDisplay:10.37,2013-02-03 09:52:00,
2013-02-03 03:57:00,9.7,3.1,29.97,WNW,301,10.4,10.4,74,0.00,OVC,,0.00,WeatherDisplay:10.37,2013-02-03 09:57:00,
2013-02-03 04:02:00,9.7,3.1,29.97,NW,320,11.0,11.0,74,0.00,OVC,,0.00,WeatherDisplay:10.37,2013-02-03 10:02:00,
2013-02-03 04:07:00,9.7,2.8,29.97,WNW,290,8.1,8.1,73,0.00,OVC,,0.00,WeatherDisplay:10.37,2013-02-03 10:07:00,
2013-02-03 04:12:00,9.5,2.6,29.97,WNW,283,3.5,3.5,73,0.00,OVC,,0.00,WeatherDisplay:10.37,2013-02-03 10:12:00,
2013-02-03 04:17:00,9.2,2.3,29.98,WNW,300,5.8,5.8,73,0.00,OVC,,0.00,WeatherDisplay:10.37,2013-02-03 10:17:00,
2013-02-03 04:22:00,9.2,2.6,29.98,WNW,292,8.1,8.1,74,0.00,OVC,,0.00,WeatherDisplay:10.37,2013-02-03 10:22:00,
2013-02-03 04:27:00,9.0,2.4,29.98,West,273,10.4,10.4,74,0.00,OVC,,0.00,WeatherDisplay:10.37,2013-02-03 10:27:00,
2013-02-03 04:32:00,8.8,2.2,29.98,West,276,5.8,5.8,74,0.00,BKN,,0.00,WeatherDisplay:10.37,2013-02-03 10:32:00,
2013-02-03 04:37:00,8.6,2.0,29.98,WNW,296,3.5,3.5,74,0.00,BKN,,0.00,WeatherDisplay:10.37,2013-02-03 10:37:00,
2013-02-03 04:42:00,8.6,2.0,29.98,NW,319,6.9,6.9,74,0.00,BKN,,0.00,WeatherDisplay:10.37,2013-02-03 10:42:00,
2013-02-03 04:47:00,8.3,1.7,29.99,WNW,298,4.6,4.6,74,0.00,SCT,,0.00,WeatherDisplay:10.37,2013-02-03 10:47:00,
2013-02-03 04:52:00,8.1,1.8,29.99,WNW,302,6.9,6.9,75,0.00,SCT,,0.00,WeatherDisplay:10.37,2013-02-03 10:52:00,
2013-02-03 04:57:00,7.9,1.6,29.99,WNW,286,11.5,11.5,75,0.00,SCT,,0.00,WeatherDisplay:10.37,2013-02-03 10:57:00,
2013-02-03 05:02:00,7.7,1.1,29.99,WSW,241,10.4,10.4,74,0.00,CLR,,0.00,WeatherDisplay:10.37,2013-02-03 11:02:00,
2013-02-03 05:07:00,7.7,1.4,29.99,WNW,293,8.1,8.1,75,0.00,CLR,,0.00,WeatherDisplay:10.37,2013-02-03 11:07:00,
2013-02-03 05:12:00,7.6,1.3,29.99,NW,308,11.5,11.5,75,0.00,CLR,,0.00,WeatherDisplay:10.37,2013-02-03 11:12:00,
2013-02-03 05:17:00,7.4,1.1,30.00,NW,326,5.8,5.8,75,0.00,CLR,,0.00,WeatherDisplay:10.37,2013-02-03 11:17:00,
2013-02-03 05:22:00,7.2,0.7,30.00,WNW,295,11.5,11.5,74,0.00,CLR,,0.00,WeatherDisplay:10.37,2013-02-03 11:22:00,
2013-02-03 05:27:00,7.0,0.5,30.00,NW,313,11.5,11.5,74,0.00,CLR,,0.00,WeatherDisplay:10.37,2013-02-03 11:27:00,
2013-02-03 05:32:00,6.9,0.4,30.00,NW,309,9.2,9.2,74,0.00,SCT,,0.00,WeatherDisplay:10.37,2013-02-03 11:32:00,
2013-02-03 05:37:00,6.7,0.2,30.00,NW,315,15.0,15.0,74,0.00,SCT,,0.00,WeatherDisplay:10.37,2013-02-03 11:37:00,
2013-02-03 05:42:00,6.5,0.0,30.00,West,271,9.2,9.2,74,0.00,SCT,,0.00,WeatherDisplay:10.37,2013-02-03 11:42:00,
2013-02-03 05:47:00,6.3,-0.2,30.00,NW,316,11.5,11.5,74,0.00,SCT,,0.00,WeatherDisplay:10.37,2013-02-03 11:47:00,
2013-02-03 05:52:00,6.1,-0.4,30.00,NW,322,9.2,9.2,74,0.00,SCT,,0.00,WeatherDisplay:10.37,2013-02-03 11:52:00,
2013-02-03 05:57:00,6.0,-0.5,30.00,NW,311,10.4,10.4,74,0.00,SCT,,0.00,WeatherDisplay:10.37,2013-02-03 11:57:00,
2013-02-03 06:02:00,5.8,-0.7,30.00,NW,324,6.0,6.3,74,0.00,CLR,,0.00,WeatherDisplay:10.37,2013-02-03 12:02:00,
2013-02-03 06:07:00,5.8,-0.7,30.00,WNW,287,10.4,10.4,74,0.00,CLR,,0.00,WeatherDisplay:10.37,2013-02-03 12:07:00,
2013-02-03 06:12:00,5.6,-0.9,30.00,NW,320,5.8,5.8,74,0.00,CLR,,0.00,WeatherDisplay:10.37,2013-02-03 12:12:00,
2013-02-03 06:17:00,5.4,-1.1,30.00,WNW,284,9.2,9.2,74,0.00,CLR,,0.00,WeatherDisplay:10.37,2013-02-03 12:17:00,
2013-02-03 06:22:00,5.2,-1.3,30.00,NW,304,9.2,9.2,74,0.00,CLR,,0.00,WeatherDisplay:10.37,2013-02-03 12:22:00,
2013-02-03 06:27:00,5.2,-1.3,30.00,NW,309,6.9,6.9,74,0.00,CLR,,0.00,WeatherDisplay:10.37,2013-02-03 12:27:00,
2013-02-03 06:32:00,5.0,-1.5,30.00,NW,310,3.5,3.5,74,0.00,CLR,,0.00,WeatherDisplay:10.37,2013-02-03 12:32:00,
2013-02-03 06:37:00,4.8,-1.7,30.00,NW,307,11.5,11.5,74,0.00,CLR,,0.00,WeatherDisplay:10.37,2013-02-03 12:37:00,
2013-02-03 06:42:00,4.8,-1.7,30.00,NNW,333,10.4,10.4,74,0.00,CLR,,0.00,WeatherDisplay:10.37,2013-02-03 12:42:00,
2013-02-03 06:47:00,4.7,-1.8,30.00,NW,317,8.0,8.0,74,0.00,CLR,,0.00,WeatherDisplay:10.37,2013-02-03 12:47:00,
2013-02-03 06:52:00,4.7,-1.8,30.00,WNW,300,4.6,4.6,74,0.00,CLR,,0.00,WeatherDisplay:10.37,2013-02-03 12:52:00,
2013-02-03 06:57:00,4.5,-2.0,30.00,WNW,295,9.2,9.2,74,0.00,CLR,,0.00,WeatherDisplay:10.37,2013-02-03 12:57:00,
2013-02-03 07:02:00,4.5,-2.0,30.00,NW,309,3.5,3.5,74,0.00,CLR,,0.00,WeatherDisplay:10.37,2013-02-03 13:02:00,
2013-02-03 07:07:00,4.5,-2.0,30.00,NW,308,9.2,9.2,74,0.00,CLR,,0.00,WeatherDisplay:10.37,2013-02-03 13:07:00,
2013-02-03 07:12:00,4.3,-2.2,30.00,WNW,302,10.4,10.4,74,0.00,CLR,,0.00,WeatherDisplay:10.37,2013-02-03 13:12:00,
2013-02-03 07:17:00,4.3,-2.2,30.02,WNW,300,2.3,2.3,74,0.00,CLR,,0.00,WeatherDisplay:10.37,2013-02-03 13:17:00,
2013-02-03 07:22:00,4.1,-2.4,30.02,WNW,296,6.9,6.9,74,0.00,CLR,,0.00,WeatherDisplay:10.37,2013-02-03 13:22:00,
2013-02-03 07:27:00,4.1,-2.4,30.02,West,267,7.0,7.0,74,0.00,CLR,,0.00,WeatherDisplay:10.37,2013-02-03 13:27:00,
2013-02-03 07:32:00,4.1,-2.1,30.02,WNW,303,10.4,10.4,75,0.00,CLR,,0.00,WeatherDisplay:10.37,2013-02-03 13:32:00,
2013-02-03 07:37:00,4.1,-2.4,30.02,NW,304,9.2,9.2,74,0.00,CLR,,0.00,WeatherDisplay:10.37,2013-02-03 13:37:00,
2013-02-03 07:42:00,3.9,-2.5,30.02,NW,315,4.6,4.6,74,0.00,CLR,,0.00,WeatherDisplay:10.37,2013-02-03 13:42:00,
2013-02-03 07:47:00,3.9,-2.5,30.02,NW,315,5.0,5.0,74,0.00,CLR,,0.00,WeatherDisplay:10.37,2013-02-03 13:47:00,
2013-02-03 07:52:00,3.9,-2.5,30.02,NW,304,5.8,5.8,74,0.00,CLR,,0.00,WeatherDisplay:10.37,2013-02-03 13:52:00,
2013-02-03 07:57:00,3.9,-2.3,30.02,WNW,296,3.5,3.5,75,0.00,CLR,,0.00,WeatherDisplay:10.37,2013-02-03 13:57:00,
2013-02-03 08:02:00,3.9,-2.3,30.02,WNW,284,3.0,3.0,75,0.00,CLR,,0.00,WeatherDisplay:10.37,2013-02-03 14:02:00,
2013-02-03 08:07:00,4.1,-2.1,30.02,WNW,290,5.0,5.0,75,0.00,CLR,,0.00,WeatherDisplay:10.37,2013-02-03 14:07:00,
2013-02-03 08:12:00,4.5,-1.7,30.02,West,280,4.6,4.6,75,0.00,CLR,,0.00,WeatherDisplay:10.37,2013-02-03 14:12:00,
2013-02-03 08:17:00,4.7,-1.8,30.03,WSW,254,4.6,4.6,74,0.00,CLR,,0.00,WeatherDisplay:10.37,2013-02-03 14:17:00,
2013-02-03 08:22:00,4.5,-2.0,30.03,NW,317,6.9,6.9,74,0.00,CLR,,0.00,WeatherDisplay:10.37,2013-02-03 14:22:00,
2013-02-03 08:27:00,4.3,-2.4,30.03,West,261,3.5,3.5,73,0.00,CLR,,0.00,WeatherDisplay:10.37,2013-02-03 14:27:00,
2013-02-03 08:32:00,4.5,-2.3,30.03,NNW,342,4.0,4.0,73,0.00,SCT,,0.00,WeatherDisplay:10.37,2013-02-03 14:32:00,
2013-02-03 08:37:00,4.7,-2.1,30.03,WNW,296,4.6,4.6,73,0.00,SCT,,0.00,WeatherDisplay:10.37,2013-02-03 14:37:00,
2013-02-03 08:42:00,4.8,-2.3,30.03,NW,309,5.8,5.8,72,0.00,SCT,,0.00,WeatherDisplay:10.37,2013-02-03 14:42:00,
2013-02-03 08:47:00,5.0,-2.4,30.03,NNW,333,12.7,12.7,71,0.00,BKN,,0.00,WeatherDisplay:10.37,2013-02-03 14:47:00,
2013-02-03 08:52:00,5.0,-2.7,30.03,WNW,302,11.5,11.5,70,0.00,BKN,,0.00,WeatherDisplay:10.37,2013-02-03 14:52:00,
2013-02-03 08:57:00,5.4,-2.0,30.03,NW,321,6.0,6.0,71,0.00,BKN,,0.00,WeatherDisplay:10.37,2013-02-03 14:57:00,
2013-02-03 09:02:00,5.8,-1.9,30.03,WNW,296,7.0,7.0,70,0.00,BKN,,0.00,WeatherDisplay:10.37,2013-02-03 15:02:00,
2013-02-03 09:07:00,5.8,-2.2,30.03,North,355,5.0,5.0,69,0.00,BKN,,0.00,WeatherDisplay:10.37,2013-02-03 15:07:00,
2013-02-03 09:12:00,5.6,-2.7,30.03,NNW,337,10.4,10.4,68,0.00,BKN,,0.00,WeatherDisplay:10.37,2013-02-03 15:12:00,
2013-02-03 09:17:00,5.6,-2.4,30.03,WNW,300,3.5,3.5,69,0.00,BKN,,0.00,WeatherDisplay:10.37,2013-02-03 15:17:00,
2013-02-03 09:22:00,6.0,-2.0,30.03,NW,323,6.0,6.0,69,0.00,BKN,,0.00,WeatherDisplay:10.37,2013-02-03 15:22:00,
2013-02-03 09:27:00,6.0,-2.3,30.03,NW,316,8.1,8.1,68,0.00,BKN,,0.00,WeatherDisplay:10.37,2013-02-03 15:27:00,
2013-02-03 09:32:00,6.1,-2.2,30.03,NNW,333,8.1,8.1,68,0.00,BKN,,0.00,WeatherDisplay:10.37,2013-02-03 15:32:00,
2013-02-03 09:37:00,6.7,-1.6,30.03,NW,314,2.3,2.3,68,0.00,BKN,,0.00,WeatherDisplay:10.37,2013-02-03 15:37:00,
2013-02-03 09:42:00,6.9,-1.8,30.03,NW,315,11.5,11.5,67,0.00,BKN,,0.00,WeatherDisplay:10.37,2013-02-03 15:42:00,
2013-02-03 09:47:00,7.0,-2.0,30.04,NNW,330,6.9,6.9,66,0.00,SCT,,0.00,WeatherDisplay:10.37,2013-02-03 15:47:00,
2013-02-03 09:52:00,7.2,-1.8,30.04,WNW,303,9.2,9.2,66,0.00,SCT,,0.00,WeatherDisplay:10.37,2013-02-03 15:52:00,
2013-02-03 09:57:00,7.4,-1.6,30.04,WNW,295,4.0,4.0,66,0.00,SCT,,0.00,WeatherDisplay:10.37,2013-02-03 15:57:00,
2013-02-03 10:02:00,7.9,-1.1,30.03,West,275,6.9,6.9,66,0.00,BKN,,0.00,WeatherDisplay:10.37,2013-02-03 16:02:00,
2013-02-03 10:07:00,8.6,-0.4,30.04,NNW,334,3.5,3.5,66,0.00,BKN,,0.00,WeatherDisplay:10.37,2013-02-03 16:07:00,
2013-02-03 10:12:00,9.0,-0.7,30.04,WNW,300,3.0,3.0,64,0.00,BKN,,0.00,WeatherDisplay:10.37,2013-02-03 16:12:00,
2013-02-03 10:17:00,9.0,-1.1,30.03,WSW,251,9.2,9.2,63,0.00,BKN,,0.00,WeatherDisplay:10.37,2013-02-03 16:17:00,
2013-02-03 10:22:00,9.0,-0.7,30.03,West,263,4.6,4.6,64,0.00,BKN,,0.00,WeatherDisplay:10.37,2013-02-03 16:22:00,
2013-02-03 10:27:00,9.3,-0.4,30.03,WNW,288,5.8,5.8,64,0.00,BKN,,0.00,WeatherDisplay:10.37,2013-02-03 16:27:00,
2013-02-03 10:32:00,9.5,-0.6,30.04,NW,317,3.5,3.5,63,0.00,SCT,,0.00,WeatherDisplay:10.37,2013-02-03 16:32:00,
2013-02-03 10:37:00,9.9,0.1,30.04,WNW,285,5.8,5.8,64,0.00,SCT,,0.00,WeatherDisplay:10.37,2013-02-03 16:37:00,
2013-02-03 10:42:00,10.4,0.6,30.04,NW,313,5.0,5.0,64,0.00,SCT,,0.00,WeatherDisplay:10.37,2013-02-03 16:42:00,
2013-02-03 10:47:00,10.4,-0.1,30.04,NW,304,4.6,4.6,62,0.00,CLR,,0.00,WeatherDisplay:10.37,2013-02-03 16:47:00,
2013-02-03 10:52:00,10.2,-0.6,30.04,NW,313,5.8,5.8,61,0.00,CLR,,0.00,WeatherDisplay:10.37,2013-02-03 16:52:00,
2013-02-03 10:57:00,10.2,-0.6,30.04,WNW,297,8.1,8.1,61,0.00,CLR,,0.00,WeatherDisplay:10.37,2013-02-03 16:57:00,
2013-02-03 11:02:00,10.5,0.4,30.05,WNW,293,4.6,4.6,63,0.00,BKN,,0.00,WeatherDisplay:10.37,2013-02-03 17:02:00,
2013-02-03 11:07:00,11.1,0.3,30.05,NW,320,5.8,5.8,61,0.00,BKN,,0.00,WeatherDisplay:10.37,2013-02-03 17:07:00,
2013-02-03 11:12:00,10.9,-0.3,30.05,NW,310,6.9,6.9,60,0.00,BKN,,0.00,WeatherDisplay:10.37,2013-02-03 17:12:00,
2013-02-03 11:17:00,11.1,0.6,30.04,NW,316,2.3,2.3,62,0.00,BKN,,0.00,WeatherDisplay:10.37,2013-02-03 17:17:00,
2013-02-03 11:22:00,11.2,0.0,30.04,WNW,296,3.5,3.5,60,0.00,BKN,,0.00,WeatherDisplay:10.37,2013-02-03 17:22:00,
2013-02-03 11:27:00,10.9,-0.3,30.04,NW,325,3.5,3.5,60,0.00,BKN,,0.00,WeatherDisplay:10.37,2013-02-03 17:27:00,
2013-02-03 11:32:00,11.2,0.0,30.04,NNW,348,6.0,6.0,60,0.00,OVC,,0.00,WeatherDisplay:10.37,2013-02-03 17:32:00,
2013-02-03 11:37:00,11.2,0.4,30.04,WSW,249,4.6,4.6,61,0.00,OVC,,0.00,WeatherDisplay:10.37,2013-02-03 17:37:00,
2013-02-03 11:42:00,11.7,0.5,30.04,NW,311,4.6,4.6,60,0.00,OVC,,0.00,WeatherDisplay:10.37,2013-02-03 17:42:00,
2013-02-03 11:47:00,11.9,0.7,30.04,WNW,290,4.6,4.6,60,0.00,OVC,,0.00,WeatherDisplay:10.37,2013-02-03 17:47:00,
2013-02-03 11:52:00,12.3,1.7,30.03,WNW,292,4.6,4.6,62,0.00,OVC,,0.00,WeatherDisplay:10.37,2013-02-03 17:52:00,
2013-02-03 11:57:00,12.4,1.5,30.03,WSW,258,4.6,4.6,61,0.00,OVC,,0.00,WeatherDisplay:10.37,2013-02-03 17:57:00,
2013-02-03 12:02:00,12.8,1.5,30.02,NNW,333,3.5,4.5,60,0.00,BKN,,0.00,WeatherDisplay:10.37,2013-02-03 18:02:00,
2013-02-03 12:07:00,12.3,0.3,30.02,NW,304,6.9,6.9,58,0.00,BKN,,0.00,WeatherDisplay:10.37,2013-02-03 18:07:00,
2013-02-03 12:12:00,12.6,1.0,30.02,NW,304,5.8,5.8,59,0.00,BKN,,0.00,WeatherDisplay:10.37,2013-02-03 18:12:00,
2013-02-03 12:17:00,12.6,1.0,30.02,NW,319,4.6,4.6,59,0.00,BKN,,0.00,WeatherDisplay:10.37,2013-02-03 18:17:00,
2013-02-03 12:22:00,13.3,2.0,30.02,WNW,285,4.6,4.6,60,0.00,BKN,,0.00,WeatherDisplay:10.37,2013-02-03 18:22:00,
2013-02-03 12:27:00,13.3,1.3,30.02,NW,309,6.9,6.9,58,0.00,BKN,,0.00,WeatherDisplay:10.37,2013-02-03 18:27:00,
2013-02-03 12:32:00,13.3,1.3,30.02,NW,317,4.6,4.6,58,0.00,SCT,,0.00,WeatherDisplay:10.37,2013-02-03 18:32:00,
2013-02-03 12:37:00,13.5,2.2,30.02,WNW,299,6.0,6.0,60,0.00,SCT,,0.00,WeatherDisplay:10.37,2013-02-03 18:37:00,
2013-02-03 12:42:00,13.3,1.6,30.02,NNW,327,11.5,11.5,59,0.00,SCT,,0.00,WeatherDisplay:10.37,2013-02-03 18:42:00,
2013-02-03 12:47:00,13.1,1.8,30.01,WSW,247,8.1,8.1,60,0.00,CLR,,0.00,WeatherDisplay:10.37,2013-02-03 18:47:00,
2013-02-03 12:52:00,13.6,2.3,30.01,WNW,285,7.0,7.0,60,0.00,CLR,,0.00,WeatherDisplay:10.37,2013-02-03 18:52:00,
2013-02-03 12:57:00,13.8,2.1,30.01,WNW,302,3.5,3.5,59,0.00,CLR,,0.00,WeatherDisplay:10.37,2013-02-03 18:57:00,
2013-02-03 13:02:00,13.8,2.8,30.01,WNW,302,9.2,9.2,61,0.00,-SN,,0.00,WeatherDisplay:10.37,2013-02-03 19:02:00,
2013-02-03 13:07:00,13.6,3.0,30.01,WNW,296,2.3,2.3,62,0.00,-SN,,0.00,WeatherDisplay:10.37,2013-02-03 19:07:00,
2013-02-03 13:12:00,13.6,3.0,30.01,WNW,298,3.5,3.5,62,0.00,-SN,,0.00,WeatherDisplay:10.37,2013-02-03 19:12:00,
2013-02-03 13:17:00,13.6,3.3,30.00,WSW,247,3.5,3.5,63,0.00,-SN,,0.00,WeatherDisplay:10.37,2013-02-03 19:17:00,
2013-02-03 13:22:00,13.8,3.9,30.00,WSW,241,4.6,4.6,64,0.00,-SN,,0.00,WeatherDisplay:10.37,2013-02-03 19:22:00,
2013-02-03 13:27:00,13.6,3.3,30.00,WNW,294,4.6,4.6,63,0.00,-SN,,0.00,WeatherDisplay:10.37,2013-02-03 19:27:00,
2013-02-03 13:32:00,13.8,3.9,30.00,WSW,241,5.8,5.8,64,0.00,-SN,,0.00,WeatherDisplay:10.37,2013-02-03 19:32:00,
2013-02-03 13:37:00,13.6,3.7,30.00,WSW,246,5.8,5.8,64,0.00,-SN,,0.00,WeatherDisplay:10.37,2013-02-03 19:37:00,
2013-02-03 13:42:00,13.6,4.0,30.00,West,261,5.8,5.8,65,0.00,-SN,,0.00,WeatherDisplay:10.37,2013-02-03 19:42:00,
2013-02-03 13:47:00,13.8,4.2,29.99,WSW,254,5.8,5.8,65,0.00,-SN,,0.00,WeatherDisplay:10.37,2013-02-03 19:47:00,
2013-02-03 13:52:00,13.3,3.7,29.99,West,259,5.8,5.8,65,0.00,-SN,,0.00,WeatherDisplay:10.37,2013-02-03 19:52:00,
2013-02-03 13:57:00,13.3,4.4,29.99,West,268,5.8,5.8,67,0.00,-SN,,0.00,WeatherDisplay:10.37,2013-02-03 19:57:00,
2013-02-03 14:02:00,12.9,3.7,29.98,NNW,331,11.5,11.5,66,0.00,-SN,,0.00,WeatherDisplay:10.37,2013-02-03 20:02:00,
2013-02-03 14:07:00,12.4,2.9,29.98,WNW,303,6.9,6.9,65,0.00,-SN,,0.00,WeatherDisplay:10.37,2013-02-03 20:07:00,
2013-02-03 14:12:00,12.6,3.7,29.98,WNW,303,3.5,3.5,67,0.00,-SN,,0.00,WeatherDisplay:10.37,2013-02-03 20:12:00,
2013-02-03 14:17:00,12.8,3.9,29.98,NNW,338,3.0,3.0,67,0.00,-SN,,0.00,WeatherDisplay:10.37,2013-02-03 20:17:00,
2013-02-03 14:22:00,13.3,4.4,29.98,West,275,3.5,3.5,67,0.00,-SN,,0.00,WeatherDisplay:10.37,2013-02-03 20:22:00,
2013-02-03 14:27:00,13.5,4.6,29.98,WNW,300,1.1,1.1,67,0.00,-SN,,0.00,WeatherDisplay:10.37,2013-02-03 20:27:00,
2013-02-03 14:32:00,13.6,4.3,29.97,WNW,300,4.6,4.6,66,0.00,-SN,,0.00,WeatherDisplay:10.37,2013-02-03 20:32:00,
2013-02-03 14:37:00,13.5,4.2,29.97,West,281,6.9,6.9,66,0.00,-SN,,0.00,WeatherDisplay:10.37,2013-02-03 20:37:00,
2013-02-03 14:42:00,13.5,4.6,29.97,West,281,2.3,2.3,67,0.00,-SN,,0.00,WeatherDisplay:10.37,2013-02-03 20:42:00,
2013-02-03 14:47:00,13.5,4.6,29.97,NW,304,5.8,5.8,67,0.00,-SN,,0.00,WeatherDisplay:10.37,2013-02-03 20:47:00,
2013-02-03 14:52:00,12.9,3.7,29.97,NW,304,3.5,3.5,66,0.00,-SN,,0.00,WeatherDisplay:10.37,2013-02-03 20:52:00,
2013-02-03 14:57:00,12.8,3.9,29.97,NW,304,3.5,3.5,67,0.00,-SN,,0.00,WeatherDisplay:10.37,2013-02-03 20:57:00,
2013-02-03 15:02:00,12.8,4.2,29.96,NW,304,2.3,2.3,68,0.00,-SN,,0.00,WeatherDisplay:10.37,2013-02-03 21:02:00,
2013-02-03 15:07:00,13.1,5.1,29.96,NW,304,3.5,3.5,70,0.00,-SN,,0.00,WeatherDisplay:10.37,2013-02-03 21:07:00,
2013-02-03 15:12:00,13.3,5.3,29.96,NW,304,3.5,3.5,70,0.00,-SN,,0.00,WeatherDisplay:10.37,2013-02-03 21:12:00,
2013-02-03 15:17:00,13.1,5.1,29.96,WSW,244,3.5,3.5,70,0.00,-SN,,0.00,WeatherDisplay:10.37,2013-02-03 21:17:00,
2013-02-03 15:22:00,13.1,5.1,29.96,WSW,244,3.5,3.5,70,0.00,-SN,,0.00,WeatherDisplay:10.37,2013-02-03 21:22:00,
2013-02-03 15:27:00,13.3,5.3,29.96,NW,309,4.6,4.6,70,0.00,-SN,,0.00,WeatherDisplay:10.37,2013-02-03 21:27:00,
2013-02-03 15:32:00,13.5,5.5,29.96,NW,308,3.5,3.5,70,0.00,-SN,,0.00,WeatherDisplay:10.37,2013-02-03 21:32:00,
2013-02-03 15:37:00,13.5,5.2,29.96,WNW,291,4.6,4.6,69,0.00,-SN,,0.00,WeatherDisplay:10.37,2013-02-03 21:37:00,
2013-02-03 15:42:00,13.3,5.0,29.96,WNW,291,3.5,3.5,69,0.00,-SN,,0.00,WeatherDisplay:10.37,2013-02-03 21:42:00,
2013-02-03 15:47:00,13.3,5.0,29.96,WNW,291,3.5,3.5,69,0.00,OVC,,0.00,WeatherDisplay:10.37,2013-02-03 21:47:00,
2013-02-03 15:52:00,13.1,5.1,29.96,West,265,5.0,5.0,70,0.00,OVC,,0.00,WeatherDisplay:10.37,2013-02-03 21:52:00,
2013-02-03 15:57:00,12.8,4.9,29.96,SW,217,5.0,5.0,70,0.00,OVC,,0.00,WeatherDisplay:10.37,2013-02-03 21:57:00,
2013-02-03 16:02:00,12.8,4.9,29.95,SW,217,1.1,1.1,70,0.00,OVC,,0.00,WeatherDisplay:10.37,2013-02-03 22:02:00,
2013-02-03 16:07:00,12.8,4.9,29.95,SW,217,3.5,3.5,70,0.00,OVC,,0.00,WeatherDisplay:10.37,2013-02-03 22:07:00,
2013-02-03 16:12:00,12.8,4.9,29.95,SW,217,0.0,0.0,70,0.00,OVC,,0.00,WeatherDisplay:10.37,2013-02-03 22:12:00,
2013-02-03 16:17:00,12.8,4.9,29.95,SW,217,1.1,1.1,70,0.00,OVC,,0.00,WeatherDisplay:10.37,2013-02-03 22:17:00,
2013-02-03 16:22:00,12.6,4.7,29.95,SW,217,2.0,2.0,70,0.00,OVC,,0.00,WeatherDisplay:10.37,2013-02-03 22:22:00,
2013-02-03 16:27:00,12.6,4.3,29.95,SW,217,1.0,0.0,69,0.00,OVC,,0.00,WeatherDisplay:10.37,2013-02-03 22:27:00,
2013-02-03 16:32:00,12.4,4.2,29.95,SW,217,1.1,1.1,69,0.00,OVC,,0.00,WeatherDisplay:10.37,2013-02-03 22:32:00,
2013-02-03 16:37:00,12.4,4.5,29.94,SW,217,0.0,0.0,70,0.00,OVC,,0.00,WeatherDisplay:10.37,2013-02-03 22:37:00,
2013-02-03 16:42:00,12.6,4.7,29.94,SW,217,1.1,1.1,70,0.00,OVC,,0.00,WeatherDisplay:10.37,2013-02-03 22:42:00,
2013-02-03 16:47:00,12.9,5.0,29.94,SW,217,0.0,0.0,70,0.00,OVC,,0.00,WeatherDisplay:10.37,2013-02-03 22:47:00,
2013-02-03 16:52:00,12.9,5.0,29.94,SW,217,1.1,0.0,70,0.00,OVC,,0.00,WeatherDisplay:10.37,2013-02-03 22:52:00,
2013-02-03 16:57:00,12.8,4.9,29.94,SW,217,1.1,0.0,70,0.00,OVC,,0.00,WeatherDisplay:10.37,2013-02-03 22:57:00,
2013-02-03 17:02:00,12.8,4.9,29.95,SW,217,1.1,1.1,70,0.00,BKN,,0.00,WeatherDisplay:10.37,2013-02-03 23:02:00,
2013-02-03 17:07:00,12.4,4.8,29.95,SW,217,0.0,0.0,71,0.00,BKN,,0.00,WeatherDisplay:10.37,2013-02-03 23:07:00,
2013-02-03 17:12:00,12.3,4.7,29.95,SW,217,0.0,0.0,71,0.00,BKN,,0.00,WeatherDisplay:10.37,2013-02-03 23:12:00,
2013-02-03 17:17:00,12.3,5.0,29.94,SW,217,0.0,0.0,72,0.00,BKN,,0.00,WeatherDisplay:10.37,2013-02-03 23:17:00,
2013-02-03 17:22:00,12.3,5.3,29.94,SW,217,0.0,0.0,73,0.00,BKN,,0.00,WeatherDisplay:10.37,2013-02-03 23:22:00,
2013-02-03 17:27:00,12.3,5.3,29.94,SW,217,0.0,0.0,73,0.00,BKN,,0.00,WeatherDisplay:10.37,2013-02-03 23:27:00,
2013-02-03 17:32:00,12.3,5.6,29.94,SW,217,0.0,0.1,74,0.00,-SN,,0.00,WeatherDisplay:10.37,2013-02-03 23:32:00,
2013-02-03 17:37:00,12.3,5.6,29.94,SW,217,0.0,0.0,74,0.00,-SN,,0.00,WeatherDisplay:10.37,2013-02-03 23:37:00,
2013-02-03 17:42:00,12.3,5.9,29.94,SW,217,2.3,2.3,75,0.00,-SN,,0.00,WeatherDisplay:10.37,2013-02-03 23:42:00,
2013-02-03 17:47:00,12.1,6.0,29.94,SW,217,0.0,0.0,76,0.00,-SN,,0.00,WeatherDisplay:10.37,2013-02-03 23:47:00,
2013-02-03 17:52:00,12.1,6.0,29.94,SW,217,1.1,0.0,76,0.00,-SN,,0.00,WeatherDisplay:10.37,2013-02-03 23:52:00,
2013-02-03 17:57:00,12.1,6.3,29.94,SW,217,1.1,1.1,77,0.00,-SN,,0.00,WeatherDisplay:10.37,2013-02-03 23:57:00,
2013-02-03 18:02:00,12.1,6.3,29.96,SW,217,0.0,0.0,77,0.00,-SN,,0.00,WeatherDisplay:10.37,2013-02-04 00:02:00,
2013-02-03 18:07:00,12.1,6.3,29.96,SW,217,1.1,1.1,77,0.00,-SN,,0.00,WeatherDisplay:10.37,2013-02-04 00:07:00,
2013-02-03 18:12:00,12.1,6.6,29.96,SW,217,0.0,0.0,78,0.00,-SN,,0.00,WeatherDisplay:10.37,2013-02-04 00:12:00,
2013-02-03 18:17:00,12.1,6.6,29.96,SW,217,2.3,2.3,78,0.00,-SN,,0.00,WeatherDisplay:10.37,2013-02-04 00:17:00,
2013-02-03 18:22:00,12.1,6.6,29.96,SW,217,1.1,0.0,78,0.00,-SN,,0.00,WeatherDisplay:10.37,2013-02-04 00:22:00,
2013-02-03 18:27:00,12.1,6.6,29.96,SW,217,2.3,2.3,78,0.00,-SN,,0.00,WeatherDisplay:10.37,2013-02-04 00:27:00,
2013-02-03 18:32:00,11.9,6.4,29.96,SW,217,1.1,0.0,78,0.00,-SN,,0.00,WeatherDisplay:10.37,2013-02-04 00:32:00,
2013-02-03 18:37:00,11.9,6.6,29.96,SW,217,1.1,0.0,79,0.00,-SN,,0.00,WeatherDisplay:10.37,2013-02-04 00:37:00,
2013-02-03 18:42:00,11.9,6.6,29.96,SW,217,0.0,0.0,79,0.00,-SN,,0.00,WeatherDisplay:10.37,2013-02-04 00:42:00,
2013-02-03 18:47:00,11.9,6.6,29.95,SW,217,0.0,0.0,79,0.00,-SN,,0.00,WeatherDisplay:10.37,2013-02-04 00:47:00,
2013-02-03 18:52:00,11.9,6.6,29.95,SW,217,0.0,0.0,79,0.00,-SN,,0.00,WeatherDisplay:10.37,2013-02-04 00:52:00,
2013-02-03 18:57:00,11.9,6.6,29.95,SW,217,0.0,0.0,79,0.00,-SN,,0.00,WeatherDisplay:10.37,2013-02-04 00:57:00,
2013-02-03 19:02:00,11.9,6.6,29.95,SW,217,0.0,0.0,79,0.00,-SN,,0.00,WeatherDisplay:10.37,2013-02-04 01:02:00,
2013-02-03 19:07:00,11.9,6.6,29.95,SW,217,0.0,0.0,79,0.00,-SN,,0.00,WeatherDisplay:10.37,2013-02-04 01:07:00,
2013-02-03 19:12:00,11.9,6.6,29.95,SW,217,0.0,0.0,79,0.00,-SN,,0.00,WeatherDisplay:10.37,2013-02-04 01:12:00,
2013-02-03 19:17:00,11.7,6.2,29.94,SW,217,0.0,0.0,78,0.00,-SN,,0.00,WeatherDisplay:10.37,2013-02-04 01:17:00,
2013-02-03 19:22:00,11.7,6.2,29.94,SW,217,0.0,0.0,78,0.00,-SN,,0.00,WeatherDisplay:10.37,2013-02-04 01:22:00,
2013-02-03 19:27:00,11.6,6.1,29.94,SW,217,0.0,0.0,78,0.00,-SN,,0.00,WeatherDisplay:10.37,2013-02-04 01:27:00,
2013-02-03 19:32:00,11.6,6.3,29.94,SW,217,0.0,0.0,79,0.00,OVC,,0.00,WeatherDisplay:10.37,2013-02-04 01:32:00,
2013-02-03 19:37:00,11.7,6.4,29.94,SW,217,0.0,0.0,79,0.00,OVC,,0.00,WeatherDisplay:10.37,2013-02-04 01:37:00,
2013-02-03 19:42:00,11.7,6.4,29.94,SW,217,0.0,0.0,79,0.00,OVC,,0.00,WeatherDisplay:10.37,2013-02-04 01:42:00,
2013-02-03 19:47:00,11.7,6.4,29.93,SW,217,0.0,0.0,79,0.00,-SN,,0.00,WeatherDisplay:10.37,2013-02-04 01:47:00,
2013-02-03 19:52:00,11.7,6.4,29.93,SW,217,2.3,2.3,79,0.00,-SN,,0.00,WeatherDisplay:10.37,2013-02-04 01:52:00,
2013-02-03 19:57:00,11.6,6.3,29.93,SW,217,1.1,1.1,79,0.00,-SN,,0.00,WeatherDisplay:10.37,2013-02-04 01:57:00,
2013-02-03 20:02:00,11.6,6.3,29.93,SW,217,1.1,0.0,79,0.00,-SN,,0.00,WeatherDisplay:10.37,2013-02-04 02:02:00,
2013-02-03 20:07:00,11.6,6.3,29.93,SW,217,2.3,2.3,79,0.00,-SN,,0.00,WeatherDisplay:10.37,2013-02-04 02:07:00,
2013-02-03 20:12:00,11.6,6.6,29.93,SW,217,1.1,1.1,80,0.00,-SN,,0.00,WeatherDisplay:10.37,2013-02-04 02:12:00,
2013-02-03 20:17:00,11.7,6.7,29.93,SW,217,2.3,0.0,80,0.00,-SN,,0.00,WeatherDisplay:10.37,2013-02-04 02:17:00,
2013-02-03 20:22:00,11.7,6.7,29.93,SW,217,2.3,2.3,80,0.00,-SN,,0.00,WeatherDisplay:10.37,2013-02-04 02:22:00,
2013-02-03 20:27:00,11.6,6.6,29.93,SW,217,3.0,3.0,80,0.00,-SN,,0.00,WeatherDisplay:10.37,2013-02-04 02:27:00,
2013-02-03 20:32:00,11.6,6.3,29.93,SW,217,3.0,3.0,79,0.00,-SN,,0.00,WeatherDisplay:10.37,2013-02-04 02:32:00,
2013-02-03 20:37:00,11.7,6.7,29.93,SW,217,3.5,3.5,80,0.00,-SN,,0.00,WeatherDisplay:10.37,2013-02-04 02:37:00,
2013-02-03 20:42:00,11.7,6.7,29.93,SW,217,2.0,2.0,80,0.00,-SN,,0.00,WeatherDisplay:10.37,2013-02-04 02:42:00,
2013-02-03 20:47:00,11.7,6.7,29.93,SW,217,2.3,2.3,80,0.00,-SN,,0.00,WeatherDisplay:10.37,2013-02-04 02:47:00,
2013-02-03 20:52:00,11.7,6.7,29.93,SW,217,2.0,2.0,80,0.00,-SN,,0.00,WeatherDisplay:10.37,2013-02-04 02:52:00,
2013-02-03 20:57:00,11.7,6.7,29.93,ENE,72,3.5,3.5,80,0.00,-SN,,0.00,WeatherDisplay:10.37,2013-02-04 02:57:00,
2013-02-03 21:02:00,11.7,6.7,29.93,ENE,72,3.5,3.5,80,0.00,-SN,,0.00,WeatherDisplay:10.37,2013-02-04 03:02:00,
2013-02-03 21:07:00,11.7,7.0,29.93,NE,36,3.5,3.5,81,0.00,-SN,,0.00,WeatherDisplay:10.37,2013-02-04 03:07:00,
2013-02-03 21:12:00,11.7,7.0,29.93,NNE,22,3.5,3.5,81,0.00,-SN,,0.00,WeatherDisplay:10.37,2013-02-04 03:12:00,
2013-02-03 21:17:00,11.6,6.9,29.93,NNE,23,2.3,2.3,81,0.00,-SN,,0.00,WeatherDisplay:10.37,2013-02-04 03:17:00,
2013-02-03 21:22:00,11.6,6.9,29.93,NNE,23,3.5,3.5,81,0.00,-SN,,0.00,WeatherDisplay:10.37,2013-02-04 03:22:00,
2013-02-03 21:27:00,11.6,7.2,29.93,NNE,23,2.3,2.3,82,0.00,-SN,,0.00,WeatherDisplay:10.37,2013-02-04 03:27:00,
2013-02-03 21:32:00,11.6,7.2,29.94,NNE,23,3.5,3.5,82,0.00,-SN,,0.00,WeatherDisplay:10.37,2013-02-04 03:32:00,
2013-02-03 21:37:00,11.6,7.2,29.94,NNE,23,1.1,1.5,82,0.00,-SN,,0.00,WeatherDisplay:10.37,2013-02-04 03:37:00,
2013-02-03 21:42:00,11.4,7.0,29.94,NNE,23,3.5,3.5,82,0.00,-SN,,0.00,WeatherDisplay:10.37,2013-02-04 03:42:00,
2013-02-03 21:47:00,11.4,7.0,29.94,NNE,23,3.5,3.5,82,0.00,-SN,,0.00,WeatherDisplay:10.37,2013-02-04 03:47:00,
2013-02-03 21:52:00,11.4,7.0,29.94,NE,42,3.5,3.5,82,0.00,-SN,,0.00,WeatherDisplay:10.37,2013-02-04 03:52:00,
2013-02-03 21:57:00,11.2,6.8,29.94,NNE,21,3.5,3.5,82,0.00,-SN,,0.00,WeatherDisplay:10.37,2013-02-04 03:57:00,
2013-02-03 22:02:00,11.2,7.0,29.93,NNE,21,2.3,2.3,83,0.00,OVC,,0.00,WeatherDisplay:10.37,2013-02-04 04:02:00,
2013-02-03 22:07:00,11.4,7.2,29.93,NNE,22,2.3,2.3,83,0.00,OVC,,0.00,WeatherDisplay:10.37,2013-02-04 04:07:00,
2013-02-03 22:12:00,11.4,7.2,29.93,NNW,344,3.5,3.5,83,0.00,OVC,,0.00,WeatherDisplay:10.37,2013-02-04 04:12:00,
2013-02-03 22:17:00,11.2,6.8,29.93,North,350,3.5,3.5,82,0.00,OVC,,0.00,WeatherDisplay:10.37,2013-02-04 04:17:00,
2013-02-03 22:22:00,11.2,7.0,29.94,North,350,2.3,2.3,83,0.00,OVC,,0.00,WeatherDisplay:10.37,2013-02-04 04:22:00,
2013-02-03 22:27:00,11.2,7.0,29.94,North,350,3.5,3.5,83,0.00,OVC,,0.00,WeatherDisplay:10.37,2013-02-04 04:27:00,
2013-02-03 22:32:00,11.2,7.0,29.93,North,350,2.3,2.3,83,0.00,-SN,,0.00,WeatherDisplay:10.37,2013-02-04 04:32:00,
2013-02-03 22:37:00,11.2,7.0,29.93,North,350,2.3,2.3,83,0.00,-SN,,0.00,WeatherDisplay:10.37,2013-02-04 04:37:00,
2013-02-03 22:42:00,11.2,7.0,29.93,North,350,3.5,3.5,83,0.00,-SN,,0.00,WeatherDisplay:10.37,2013-02-04 04:42:00,
2013-02-03 22:47:00,11.2,7.0,29.92,North,350,2.3,2.3,83,0.00,-SN,,0.00,WeatherDisplay:10.37,2013-02-04 04:47:00,
2013-02-03 22:52:00,11.2,7.0,29.92,North,350,2.0,2.0,83,0.00,-SN,,0.00,WeatherDisplay:10.37,2013-02-04 04:52:00,
2013-02-03 22:57:00,11.2,7.0,29.92,North,350,0.0,0.1,83,0.00,-SN,,0.00,WeatherDisplay:10.37,2013-02-04 04:57:00,
2013-02-03 23:00:00,11.2,7.0,29.92,North,349,3.5,3.5,83,0.00,-SN,,0.00,WeatherDisplay:10.37,2013-02-04 05:00:00,
2013-02-03 23:01:00,11.2,7.0,29.92,North,350,3.5,3.5,83,0.00,-SN,,0.00,WeatherDisplay:10.37,2013-02-04 05:01:00,
2013-02-03 23:02:00,11.2,7.0,29.92,North,360,3.0,3.0,83,0.00,-SN,,0.00,WeatherDisplay:10.37,2013-02-04 05:02:00,
2013-02-03 23:03:00,11.2,7.0,29.92,NNE,23,4.0,4.0,83,0.00,-SN,,0.00,WeatherDisplay:10.37,2013-02-04 05:03:00,
2013-02-03 23:08:00,11.2,7.0,29.92,North,11,3.5,3.5,83,0.00,-SN,,0.00,WeatherDisplay:10.37,2013-02-04 05:08:00,
2013-02-03 23:13:00,11.2,7.0,29.92,NNE,26,3.5,3.5,83,0.00,-SN,,0.00,WeatherDisplay:10.37,2013-02-04 05:13:00,
2013-02-03 23:18:00,11.2,7.0,29.92,ENE,62,3.5,3.5,83,0.00,-SN,,0.00,WeatherDisplay:10.37,2013-02-04 05:18:00,
2013-02-03 23:23:00,11.2,7.0,29.92,NE,38,2.3,2.3,83,0.00,-SN,,0.00,WeatherDisplay:10.37,2013-02-04 05:23:00,
2013-02-03 23:28:00,11.2,7.0,29.92,ENE,67,3.5,3.5,83,0.00,-SN,,0.00,WeatherDisplay:10.37,2013-02-04 05:28:00,
2013-02-03 23:33:00,11.2,7.0,29.92,NE,46,3.5,3.5,83,0.00,-SN,,0.00,WeatherDisplay:10.37,2013-02-04 05:33:00,
2013-02-03 23:38:00,11.1,6.9,29.92,NE,44,3.5,3.5,83,0.00,-SN,,0.00,WeatherDisplay:10.37,2013-02-04 05:38:00,
2013-02-03 23:43:00,10.9,6.5,29.92,NNE,22,4.6,4.6,82,0.00,-SN,,0.00,WeatherDisplay:10.37,2013-02-04 05:43:00,
2013-02-03 23:48:00,10.7,6.3,29.92,NNE,24,3.5,3.5,82,0.00,-SN,,0.00,WeatherDisplay:10.37,2013-02-04 05:48:00,
2013-02-03 23:53:00,10.7,6.3,29.92,NNE,22,5.8,5.8,82,0.00,-SN,,0.00,WeatherDisplay:10.37,2013-02-04 05:53:00,
2013-02-03 23:58:00,10.7,6.3,29.92,NNE,24,2.3,2.3,82,0.00,-SN,,0.00,WeatherDisplay:10.37,2013-02-04 05:58:00,